sensor_id;sensor_type;location;lat;lon;timestamp;temperature;humidity
57390;DHT22;43217;52.694;6.214;2023-04-23T00:01:25;7.90;99.90
57390;DHT22;43217;52.694;6.214;2023-04-23T00:03:55;7.90;99.90
57390;DHT22;43217;52.694;6.214;2023-04-23T00:06:22;7.90;99.90
57390;DHT22;43217;52.694;6.214;2023-04-23T00:08:50;7.90;99.90
57390;DHT22;43217;52.694;6.214;2023-04-23T00:11:17;7.90;99.90
57390;DHT22;43217;52.694;6.214;2023-04-23T00:13:43;7.90;99.90
57390;DHT22;43217;52.694;6.214;2023-04-23T00:16:09;7.90;99.90
57390;DHT22;43217;52.694;6.214;2023-04-23T00:18:36;7.90;99.90
57390;DHT22;43217;52.694;6.214;2023-04-23T00:21:02;7.90;99.90
57390;DHT22;43217;52.694;6.214;2023-04-23T00:23:28;7.90;99.90
57390;DHT22;43217;52.694;6.214;2023-04-23T00:25:53;7.90;99.90
57390;DHT22;43217;52.694;6.214;2023-04-23T00:28:19;7.90;99.90
57390;DHT22;43217;52.694;6.214;2023-04-23T00:30:45;8.00;99.90
57390;DHT22;43217;52.694;6.214;2023-04-23T00:33:10;8.00;99.90
57390;DHT22;43217;52.694;6.214;2023-04-23T00:35:36;8.00;99.90
57390;DHT22;43217;52.694;6.214;2023-04-23T00:38:02;8.00;99.90
57390;DHT22;43217;52.694;6.214;2023-04-23T00:40:27;8.00;99.90
57390;DHT22;43217;52.694;6.214;2023-04-23T00:42:53;8.00;99.90
57390;DHT22;43217;52.694;6.214;2023-04-23T00:45:20;8.00;99.90
57390;DHT22;43217;52.694;6.214;2023-04-23T00:47:47;8.00;99.90
57390;DHT22;43217;52.694;6.214;2023-04-23T00:50:13;8.00;99.90
57390;DHT22;43217;52.694;6.214;2023-04-23T00:52:39;8.00;99.90
57390;DHT22;43217;52.694;6.214;2023-04-23T00:55:06;8.10;99.90
57390;DHT22;43217;52.694;6.214;2023-04-23T00:57:35;8.10;99.90
57390;DHT22;43217;52.694;6.214;2023-04-23T01:00:02;8.10;99.90
57390;DHT22;43217;52.694;6.214;2023-04-23T01:02:30;8.10;99.90
57390;DHT22;43217;52.694;6.214;2023-04-23T01:04:57;8.10;99.90
57390;DHT22;43217;52.694;6.214;2023-04-23T01:07:24;8.20;99.90
57390;DHT22;43217;52.694;6.214;2023-04-23T01:09:51;8.20;99.90
57390;DHT22;43217;52.694;6.214;2023-04-23T01:12:17;8.20;99.90
57390;DHT22;43217;52.694;6.214;2023-04-23T01:14:43;8.20;99.90
57390;DHT22;43217;52.694;6.214;2023-04-23T01:17:09;8.20;99.90
57390;DHT22;43217;52.694;6.214;2023-04-23T01:19:36;8.20;99.90
57390;DHT22;43217;52.694;6.214;2023-04-23T01:22:12;8.20;99.90
57390;DHT22;43217;52.694;6.214;2023-04-23T01:24:38;8.20;99.90
57390;DHT22;43217;52.694;6.214;2023-04-23T01:27:05;8.20;99.90
57390;DHT22;43217;52.694;6.214;2023-04-23T01:29:32;8.20;99.90
57390;DHT22;43217;52.694;6.214;2023-04-23T01:31:59;8.20;99.90
57390;DHT22;43217;52.694;6.214;2023-04-23T01:34:24;8.10;99.90
57390;DHT22;43217;52.694;6.214;2023-04-23T01:36:51;8.20;99.90
57390;DHT22;43217;52.694;6.214;2023-04-23T01:39:17;8.10;99.90
57390;DHT22;43217;52.694;6.214;2023-04-23T01:41:43;8.10;99.90
57390;DHT22;43217;52.694;6.214;2023-04-23T01:44:09;8.10;99.90
57390;DHT22;43217;52.694;6.214;2023-04-23T01:46:35;8.10;99.90
57390;DHT22;43217;52.694;6.214;2023-04-23T01:49:01;8.10;99.90
57390;DHT22;43217;52.694;6.214;2023-04-23T01:51:28;8.10;99.90
57390;DHT22;43217;52.694;6.214;2023-04-23T01:53:54;8.10;99.90
57390;DHT22;43217;52.694;6.214;2023-04-23T01:56:23;8.00;99.90
57390;DHT22;43217;52.694;6.214;2023-04-23T01:58:49;8.00;99.90
57390;DHT22;43217;52.694;6.214;2023-04-23T02:01:16;8.00;99.90
57390;DHT22;43217;52.694;6.214;2023-04-23T02:03:42;7.90;99.90
57390;DHT22;43217;52.694;6.214;2023-04-23T02:06:08;7.90;99.90
57390;DHT22;43217;52.694;6.214;2023-04-23T02:08:34;7.80;99.90
57390;DHT22;43217;52.694;6.214;2023-04-23T02:11:00;7.80;99.90
57390;DHT22;43217;52.694;6.214;2023-04-23T02:13:26;7.80;99.90
57390;DHT22;43217;52.694;6.214;2023-04-23T02:15:51;7.80;99.90
57390;DHT22;43217;52.694;6.214;2023-04-23T02:18:17;7.80;99.90
57390;DHT22;43217;52.694;6.214;2023-04-23T02:20:42;7.80;99.90
57390;DHT22;43217;52.694;6.214;2023-04-23T02:23:08;7.80;99.90
57390;DHT22;43217;52.694;6.214;2023-04-23T02:25:35;7.80;99.90
57390;DHT22;43217;52.694;6.214;2023-04-23T02:28:03;7.80;99.90
57390;DHT22;43217;52.694;6.214;2023-04-23T02:30:32;7.70;99.90
57390;DHT22;43217;52.694;6.214;2023-04-23T02:32:58;7.80;99.90
57390;DHT22;43217;52.694;6.214;2023-04-23T02:35:23;7.70;99.90
57390;DHT22;43217;52.694;6.214;2023-04-23T02:37:50;7.70;99.90
57390;DHT22;43217;52.694;6.214;2023-04-23T02:40:15;7.70;99.90
57390;DHT22;43217;52.694;6.214;2023-04-23T02:42:41;7.60;99.90
57390;DHT22;43217;52.694;6.214;2023-04-23T02:45:07;7.60;99.90
57390;DHT22;43217;52.694;6.214;2023-04-23T02:47:33;7.60;99.90
57390;DHT22;43217;52.694;6.214;2023-04-23T02:49:58;7.60;99.90
57390;DHT22;43217;52.694;6.214;2023-04-23T02:52:28;7.60;99.90
57390;DHT22;43217;52.694;6.214;2023-04-23T02:54:54;7.60;99.90
57390;DHT22;43217;52.694;6.214;2023-04-23T02:57:20;7.60;99.90
57390;DHT22;43217;52.694;6.214;2023-04-23T02:59:46;7.60;99.90
57390;DHT22;43217;52.694;6.214;2023-04-23T03:02:11;7.60;99.90
57390;DHT22;43217;52.694;6.214;2023-04-23T03:04:37;7.70;99.90
57390;DHT22;43217;52.694;6.214;2023-04-23T03:07:03;7.60;99.90
57390;DHT22;43217;52.694;6.214;2023-04-23T03:09:28;7.70;99.90
57390;DHT22;43217;52.694;6.214;2023-04-23T03:11:54;7.70;99.90
57390;DHT22;43217;52.694;6.214;2023-04-23T03:14:22;7.70;99.90
57390;DHT22;43217;52.694;6.214;2023-04-23T03:16:47;7.70;99.90
57390;DHT22;43217;52.694;6.214;2023-04-23T03:19:14;7.60;99.90
57390;DHT22;43217;52.694;6.214;2023-04-23T03:21:39;7.60;99.90
57390;DHT22;43217;52.694;6.214;2023-04-23T03:24:05;7.60;99.90
57390;DHT22;43217;52.694;6.214;2023-04-23T03:26:31;7.60;99.90
57390;DHT22;43217;52.694;6.214;2023-04-23T03:28:56;7.60;99.90
57390;DHT22;43217;52.694;6.214;2023-04-23T03:31:22;7.60;99.90
57390;DHT22;43217;52.694;6.214;2023-04-23T03:33:47;7.60;99.90
57390;DHT22;43217;52.694;6.214;2023-04-23T03:36:13;7.60;99.90
57390;DHT22;43217;52.694;6.214;2023-04-23T03:38:40;7.60;99.90
57390;DHT22;43217;52.694;6.214;2023-04-23T03:41:05;7.60;99.90
57390;DHT22;43217;52.694;6.214;2023-04-23T03:43:31;7.60;99.90
57390;DHT22;43217;52.694;6.214;2023-04-23T03:45:56;7.70;99.90
57390;DHT22;43217;52.694;6.214;2023-04-23T03:48:22;7.70;99.90
57390;DHT22;43217;52.694;6.214;2023-04-23T03:50:48;7.70;99.90
57390;DHT22;43217;52.694;6.214;2023-04-23T03:53:13;7.70;99.90
57390;DHT22;43217;52.694;6.214;2023-04-23T03:55:39;7.70;99.90
57390;DHT22;43217;52.694;6.214;2023-04-23T03:58:05;7.70;99.90
57390;DHT22;43217;52.694;6.214;2023-04-23T04:00:30;7.70;99.90
57390;DHT22;43217;52.694;6.214;2023-04-23T04:02:56;7.80;99.90
57390;DHT22;43217;52.694;6.214;2023-04-23T04:05:22;7.80;99.90
57390;DHT22;43217;52.694;6.214;2023-04-23T04:07:48;7.80;99.90
57390;DHT22;43217;52.694;6.214;2023-04-23T04:10:14;7.80;99.90
57390;DHT22;43217;52.694;6.214;2023-04-23T04:12:40;7.80;99.90
57390;DHT22;43217;52.694;6.214;2023-04-23T04:15:07;7.80;99.90
57390;DHT22;43217;52.694;6.214;2023-04-23T04:17:33;7.80;99.90
57390;DHT22;43217;52.694;6.214;2023-04-23T04:19:58;7.80;99.90
57390;DHT22;43217;52.694;6.214;2023-04-23T04:22:24;7.90;99.90
57390;DHT22;43217;52.694;6.214;2023-04-23T04:24:51;7.90;99.90
57390;DHT22;43217;52.694;6.214;2023-04-23T04:27:17;7.90;99.90
57390;DHT22;43217;52.694;6.214;2023-04-23T04:29:43;7.90;99.90
57390;DHT22;43217;52.694;6.214;2023-04-23T04:32:09;7.90;99.90
57390;DHT22;43217;52.694;6.214;2023-04-23T04:34:37;8.00;99.90
57390;DHT22;43217;52.694;6.214;2023-04-23T04:37:03;8.00;99.90
57390;DHT22;43217;52.694;6.214;2023-04-23T04:39:29;8.00;99.90
57390;DHT22;43217;52.694;6.214;2023-04-23T04:41:55;8.00;99.90
57390;DHT22;43217;52.694;6.214;2023-04-23T04:44:21;8.10;99.90
57390;DHT22;43217;52.694;6.214;2023-04-23T04:46:47;8.10;99.90
57390;DHT22;43217;52.694;6.214;2023-04-23T04:49:13;8.20;99.90
57390;DHT22;43217;52.694;6.214;2023-04-23T04:51:39;8.20;99.90
57390;DHT22;43217;52.694;6.214;2023-04-23T04:54:06;8.20;99.90
57390;DHT22;43217;52.694;6.214;2023-04-23T04:56:33;8.20;99.90
57390;DHT22;43217;52.694;6.214;2023-04-23T04:58:59;8.20;99.90
57390;DHT22;43217;52.694;6.214;2023-04-23T05:01:26;8.30;99.90
57390;DHT22;43217;52.694;6.214;2023-04-23T05:03:54;8.30;99.90
57390;DHT22;43217;52.694;6.214;2023-04-23T05:06:19;8.30;99.90
57390;DHT22;43217;52.694;6.214;2023-04-23T05:08:45;8.30;99.90
57390;DHT22;43217;52.694;6.214;2023-04-23T05:11:19;8.30;99.90
57390;DHT22;43217;52.694;6.214;2023-04-23T05:13:46;8.30;99.90
57390;DHT22;43217;52.694;6.214;2023-04-23T05:16:12;8.30;99.90
57390;DHT22;43217;52.694;6.214;2023-04-23T05:18:38;8.30;99.90
57390;DHT22;43217;52.694;6.214;2023-04-23T05:21:04;8.40;99.90
57390;DHT22;43217;52.694;6.214;2023-04-23T05:23:31;8.40;99.90
57390;DHT22;43217;52.694;6.214;2023-04-23T05:25:57;8.40;99.90
57390;DHT22;43217;52.694;6.214;2023-04-23T05:28:23;8.40;99.90
57390;DHT22;43217;52.694;6.214;2023-04-23T05:30:49;8.50;99.90
57390;DHT22;43217;52.694;6.214;2023-04-23T05:33:15;8.50;99.90
57390;DHT22;43217;52.694;6.214;2023-04-23T05:35:41;8.60;99.90
57390;DHT22;43217;52.694;6.214;2023-04-23T05:38:07;8.70;99.90
57390;DHT22;43217;52.694;6.214;2023-04-23T05:40:32;8.80;99.90
57390;DHT22;43217;52.694;6.214;2023-04-23T05:42:58;8.80;99.90
57390;DHT22;43217;52.694;6.214;2023-04-23T05:45:24;8.90;99.90
57390;DHT22;43217;52.694;6.214;2023-04-23T05:47:50;8.90;99.90
57390;DHT22;43217;52.694;6.214;2023-04-23T05:50:16;9.00;99.90
57390;DHT22;43217;52.694;6.214;2023-04-23T05:52:42;9.00;99.90
57390;DHT22;43217;52.694;6.214;2023-04-23T05:55:08;9.00;99.90
57390;DHT22;43217;52.694;6.214;2023-04-23T05:57:35;9.10;99.90
57390;DHT22;43217;52.694;6.214;2023-04-23T06:00:01;9.40;99.90
57390;DHT22;43217;52.694;6.214;2023-04-23T06:02:26;9.60;99.90
57390;DHT22;43217;52.694;6.214;2023-04-23T06:04:53;10.10;99.90
57390;DHT22;43217;52.694;6.214;2023-04-23T06:07:19;10.50;99.90
57390;DHT22;43217;52.694;6.214;2023-04-23T06:09:45;10.90;99.90
57390;DHT22;43217;52.694;6.214;2023-04-23T06:12:10;11.10;99.90
57390;DHT22;43217;52.694;6.214;2023-04-23T06:14:36;11.50;99.90
57390;DHT22;43217;52.694;6.214;2023-04-23T06:17:02;11.70;99.90
57390;DHT22;43217;52.694;6.214;2023-04-23T06:19:27;12.00;99.90
57390;DHT22;43217;52.694;6.214;2023-04-23T06:21:54;12.00;99.90
57390;DHT22;43217;52.694;6.214;2023-04-23T06:24:20;11.90;99.90
57390;DHT22;43217;52.694;6.214;2023-04-23T06:26:45;11.90;99.90
57390;DHT22;43217;52.694;6.214;2023-04-23T06:29:11;11.90;99.90
57390;DHT22;43217;52.694;6.214;2023-04-23T06:31:37;12.10;99.90
57390;DHT22;43217;52.694;6.214;2023-04-23T06:34:04;12.40;99.90
57390;DHT22;43217;52.694;6.214;2023-04-23T06:36:29;12.80;99.90
57390;DHT22;43217;52.694;6.214;2023-04-23T06:38:55;12.90;99.90
57390;DHT22;43217;52.694;6.214;2023-04-23T06:41:20;13.10;99.90
57390;DHT22;43217;52.694;6.214;2023-04-23T06:43:46;13.50;99.90
57390;DHT22;43217;52.694;6.214;2023-04-23T06:46:13;13.80;99.90
57390;DHT22;43217;52.694;6.214;2023-04-23T06:48:39;14.00;99.90
57390;DHT22;43217;52.694;6.214;2023-04-23T06:51:04;14.60;99.90
57390;DHT22;43217;52.694;6.214;2023-04-23T06:53:30;14.70;99.90
57390;DHT22;43217;52.694;6.214;2023-04-23T06:55:56;14.70;99.90
57390;DHT22;43217;52.694;6.214;2023-04-23T06:58:22;14.70;99.90
57390;DHT22;43217;52.694;6.214;2023-04-23T07:00:52;14.90;99.90
57390;DHT22;43217;52.694;6.214;2023-04-23T07:03:18;15.20;99.90
57390;DHT22;43217;52.694;6.214;2023-04-23T07:05:44;15.10;99.90
57390;DHT22;43217;52.694;6.214;2023-04-23T07:08:09;15.20;99.90
57390;DHT22;43217;52.694;6.214;2023-04-23T07:10:35;15.20;99.90
57390;DHT22;43217;52.694;6.214;2023-04-23T07:13:01;15.40;99.90
57390;DHT22;43217;52.694;6.214;2023-04-23T07:15:26;15.60;99.90
57390;DHT22;43217;52.694;6.214;2023-04-23T07:17:52;15.50;99.90
57390;DHT22;43217;52.694;6.214;2023-04-23T07:20:18;15.60;99.90
57390;DHT22;43217;52.694;6.214;2023-04-23T07:22:45;16.10;99.90
57390;DHT22;43217;52.694;6.214;2023-04-23T07:25:11;16.30;99.90
57390;DHT22;43217;52.694;6.214;2023-04-23T07:27:37;16.30;99.90
57390;DHT22;43217;52.694;6.214;2023-04-23T07:30:03;16.10;99.90
57390;DHT22;43217;52.694;6.214;2023-04-23T07:32:29;16.40;99.90
57390;DHT22;43217;52.694;6.214;2023-04-23T07:34:55;16.50;99.90
57390;DHT22;43217;52.694;6.214;2023-04-23T07:37:21;16.30;99.90
57390;DHT22;43217;52.694;6.214;2023-04-23T07:39:47;16.50;99.90
57390;DHT22;43217;52.694;6.214;2023-04-23T07:42:13;16.70;99.90
57390;DHT22;43217;52.694;6.214;2023-04-23T07:44:39;17.20;99.90
57390;DHT22;43217;52.694;6.214;2023-04-23T07:47:04;17.30;99.90
57390;DHT22;43217;52.694;6.214;2023-04-23T07:49:30;17.00;99.90
57390;DHT22;43217;52.694;6.214;2023-04-23T07:51:56;16.80;99.90
57390;DHT22;43217;52.694;6.214;2023-04-23T07:54:21;17.10;99.90
57390;DHT22;43217;52.694;6.214;2023-04-23T07:56:47;17.60;99.90
57390;DHT22;43217;52.694;6.214;2023-04-23T07:59:12;18.20;99.90
57390;DHT22;43217;52.694;6.214;2023-04-23T08:01:38;18.30;99.90
57390;DHT22;43217;52.694;6.214;2023-04-23T08:04:04;19.00;99.90
57390;DHT22;43217;52.694;6.214;2023-04-23T08:06:29;19.40;99.90
57390;DHT22;43217;52.694;6.214;2023-04-23T08:08:57;19.50;99.90
57390;DHT22;43217;52.694;6.214;2023-04-23T08:11:24;19.50;99.90
57390;DHT22;43217;52.694;6.214;2023-04-23T08:13:52;19.20;99.90
57390;DHT22;43217;52.694;6.214;2023-04-23T08:16:18;18.90;99.90
57390;DHT22;43217;52.694;6.214;2023-04-23T08:18:43;18.40;99.90
57390;DHT22;43217;52.694;6.214;2023-04-23T08:21:09;19.30;99.90
57390;DHT22;43217;52.694;6.214;2023-04-23T08:23:37;20.00;99.90
57390;DHT22;43217;52.694;6.214;2023-04-23T08:26:02;20.70;99.90
57390;DHT22;43217;52.694;6.214;2023-04-23T08:28:28;21.50;99.90
57390;DHT22;43217;52.694;6.214;2023-04-23T08:30:55;22.10;99.90
57390;DHT22;43217;52.694;6.214;2023-04-23T08:33:21;22.40;97.70
57390;DHT22;43217;52.694;6.214;2023-04-23T08:35:47;22.10;95.90
57390;DHT22;43217;52.694;6.214;2023-04-23T08:38:12;21.50;93.60
57390;DHT22;43217;52.694;6.214;2023-04-23T08:40:40;21.10;96.30
57390;DHT22;43217;52.694;6.214;2023-04-23T08:43:15;20.80;97.70
57390;DHT22;43217;52.694;6.214;2023-04-23T08:45:42;21.00;96.20
57390;DHT22;43217;52.694;6.214;2023-04-23T08:48:10;20.30;97.30
57390;DHT22;43217;52.694;6.214;2023-04-23T08:50:37;20.50;98.60
57390;DHT22;43217;52.694;6.214;2023-04-23T08:53:05;19.70;97.50
57390;DHT22;43217;52.694;6.214;2023-04-23T08:55:31;19.80;99.90
57390;DHT22;43217;52.694;6.214;2023-04-23T08:57:58;20.20;99.90
57390;DHT22;43217;52.694;6.214;2023-04-23T09:00:23;20.00;98.30
57390;DHT22;43217;52.694;6.214;2023-04-23T09:02:50;20.00;99.90
57390;DHT22;43217;52.694;6.214;2023-04-23T09:05:16;20.30;99.90
57390;DHT22;43217;52.694;6.214;2023-04-23T09:07:43;19.70;99.90
57390;DHT22;43217;52.694;6.214;2023-04-23T09:10:10;19.70;99.90
57390;DHT22;43217;52.694;6.214;2023-04-23T09:12:41;20.00;99.90
57390;DHT22;43217;52.694;6.214;2023-04-23T09:15:08;20.20;99.90
57390;DHT22;43217;52.694;6.214;2023-04-23T09:17:42;20.30;99.90
57390;DHT22;43217;52.694;6.214;2023-04-23T09:20:12;20.40;99.90
57390;DHT22;43217;52.694;6.214;2023-04-23T09:25:07;20.40;99.90
57390;DHT22;43217;52.694;6.214;2023-04-23T09:27:33;19.90;99.50
57390;DHT22;43217;52.694;6.214;2023-04-23T09:30:04;19.70;99.90
57390;DHT22;43217;52.694;6.214;2023-04-23T09:32:33;19.60;99.90
57390;DHT22;43217;52.694;6.214;2023-04-23T09:35:01;19.50;99.90
57390;DHT22;43217;52.694;6.214;2023-04-23T09:37:28;19.20;99.90
57390;DHT22;43217;52.694;6.214;2023-04-23T09:39:53;18.60;99.90
57390;DHT22;43217;52.694;6.214;2023-04-23T09:42:23;18.60;99.90
57390;DHT22;43217;52.694;6.214;2023-04-23T09:45:03;18.60;99.90
57390;DHT22;43217;52.694;6.214;2023-04-23T09:47:38;18.50;99.90
57390;DHT22;43217;52.694;6.214;2023-04-23T09:50:04;18.50;99.90
57390;DHT22;43217;52.694;6.214;2023-04-23T09:52:31;18.50;99.90
57390;DHT22;43217;52.694;6.214;2023-04-23T09:55:01;18.40;99.90
57390;DHT22;43217;52.694;6.214;2023-04-23T09:57:27;18.10;99.90
57390;DHT22;43217;52.694;6.214;2023-04-23T09:59:55;18.10;99.90
57390;DHT22;43217;52.694;6.214;2023-04-23T10:02:26;18.00;99.90
57390;DHT22;43217;52.694;6.214;2023-04-23T10:04:53;18.10;99.90
57390;DHT22;43217;52.694;6.214;2023-04-23T10:07:19;18.10;99.90
57390;DHT22;43217;52.694;6.214;2023-04-23T10:09:45;18.00;99.90
57390;DHT22;43217;52.694;6.214;2023-04-23T10:12:13;18.10;99.90
57390;DHT22;43217;52.694;6.214;2023-04-23T10:14:39;18.30;99.90
57390;DHT22;43217;52.694;6.214;2023-04-23T10:17:06;18.30;99.90
57390;DHT22;43217;52.694;6.214;2023-04-23T10:19:32;18.40;99.90
57390;DHT22;43217;52.694;6.214;2023-04-23T10:22:01;18.30;99.90
57390;DHT22;43217;52.694;6.214;2023-04-23T10:24:34;18.30;99.90
57390;DHT22;43217;52.694;6.214;2023-04-23T10:27:00;18.40;99.90
57390;DHT22;43217;52.694;6.214;2023-04-23T10:29:32;18.40;99.90
57390;DHT22;43217;52.694;6.214;2023-04-23T10:32:00;18.70;99.90
57390;DHT22;43217;52.694;6.214;2023-04-23T10:34:26;18.70;99.90
57390;DHT22;43217;52.694;6.214;2023-04-23T10:36:54;18.70;99.90
57390;DHT22;43217;52.694;6.214;2023-04-23T10:39:19;18.60;99.90
57390;DHT22;43217;52.694;6.214;2023-04-23T10:41:46;18.50;99.90
57390;DHT22;43217;52.694;6.214;2023-04-23T10:44:13;18.70;99.90
57390;DHT22;43217;52.694;6.214;2023-04-23T10:46:53;18.70;99.90
57390;DHT22;43217;52.694;6.214;2023-04-23T10:49:23;18.60;99.90
57390;DHT22;43217;52.694;6.214;2023-04-23T10:51:58;18.60;99.90
57390;DHT22;43217;52.694;6.214;2023-04-23T10:54:28;18.60;99.90
57390;DHT22;43217;52.694;6.214;2023-04-23T10:57:02;18.70;99.90
57390;DHT22;43217;52.694;6.214;2023-04-23T10:59:30;18.40;99.90
57390;DHT22;43217;52.694;6.214;2023-04-23T11:01:57;18.30;99.90
57390;DHT22;43217;52.694;6.214;2023-04-23T11:04:27;18.30;99.90
57390;DHT22;43217;52.694;6.214;2023-04-23T11:06:56;18.40;99.90
57390;DHT22;43217;52.694;6.214;2023-04-23T11:09:45;18.50;99.90
57390;DHT22;43217;52.694;6.214;2023-04-23T11:14:50;18.30;99.90
57390;DHT22;43217;52.694;6.214;2023-04-23T11:17:17;18.30;99.90
57390;DHT22;43217;52.694;6.214;2023-04-23T11:22:45;18.30;99.90
57390;DHT22;43217;52.694;6.214;2023-04-23T11:27:44;18.10;99.60
57390;DHT22;43217;52.694;6.214;2023-04-23T11:30:15;18.20;99.90
57390;DHT22;43217;52.694;6.214;2023-04-23T11:32:43;18.30;99.90
57390;DHT22;43217;52.694;6.214;2023-04-23T11:35:09;18.50;97.90
57390;DHT22;43217;52.694;6.214;2023-04-23T11:37:43;18.80;98.20
57390;DHT22;43217;52.694;6.214;2023-04-23T11:40:11;19.10;99.10
57390;DHT22;43217;52.694;6.214;2023-04-23T11:42:45;19.10;95.10
57390;DHT22;43217;52.694;6.214;2023-04-23T11:45:26;19.10;94.90
57390;DHT22;43217;52.694;6.214;2023-04-23T11:47:54;19.00;95.10
57390;DHT22;43217;52.694;6.214;2023-04-23T11:50:31;18.90;93.70
57390;DHT22;43217;52.694;6.214;2023-04-23T11:53:09;18.50;91.40
57390;DHT22;43217;52.694;6.214;2023-04-23T11:55:35;18.30;91.00
57390;DHT22;43217;52.694;6.214;2023-04-23T11:58:01;18.30;91.60
57390;DHT22;43217;52.694;6.214;2023-04-23T12:00:28;18.20;91.30
57390;DHT22;43217;52.694;6.214;2023-04-23T12:03:04;18.00;89.00
57390;DHT22;43217;52.694;6.214;2023-04-23T12:05:35;18.00;89.60
57390;DHT22;43217;52.694;6.214;2023-04-23T12:08:11;18.00;90.30
57390;DHT22;43217;52.694;6.214;2023-04-23T12:10:52;18.10;91.00
57390;DHT22;43217;52.694;6.214;2023-04-23T12:15:52;18.20;91.00
57390;DHT22;43217;52.694;6.214;2023-04-23T12:18:32;18.40;91.80
57390;DHT22;43217;52.694;6.214;2023-04-23T12:21:10;18.40;91.60
57390;DHT22;43217;52.694;6.214;2023-04-23T12:23:38;18.50;91.10
57390;DHT22;43217;52.694;6.214;2023-04-23T12:26:08;18.60;91.90
57390;DHT22;43217;52.694;6.214;2023-04-23T12:28:45;18.50;90.40
57390;DHT22;43217;52.694;6.214;2023-04-23T12:31:18;18.70;90.20
57390;DHT22;43217;52.694;6.214;2023-04-23T12:33:44;18.70;84.60
57390;DHT22;43217;52.694;6.214;2023-04-23T12:36:10;18.80;88.40
57390;DHT22;43217;52.694;6.214;2023-04-23T12:38:36;18.70;88.30
57390;DHT22;43217;52.694;6.214;2023-04-23T12:41:03;18.60;87.70
57390;DHT22;43217;52.694;6.214;2023-04-23T12:43:29;18.80;90.20
57390;DHT22;43217;52.694;6.214;2023-04-23T12:45:55;18.90;89.70
57390;DHT22;43217;52.694;6.214;2023-04-23T12:48:21;18.90;88.30
57390;DHT22;43217;52.694;6.214;2023-04-23T12:50:47;19.00;90.10
57390;DHT22;43217;52.694;6.214;2023-04-23T12:53:12;19.10;88.30
57390;DHT22;43217;52.694;6.214;2023-04-23T12:55:38;19.20;87.00
57390;DHT22;43217;52.694;6.214;2023-04-23T12:58:05;19.10;85.60
57390;DHT22;43217;52.694;6.214;2023-04-23T13:00:31;19.20;87.40
57390;DHT22;43217;52.694;6.214;2023-04-23T13:02:57;19.20;81.90
57390;DHT22;43217;52.694;6.214;2023-04-23T13:05:22;19.30;82.90
57390;DHT22;43217;52.694;6.214;2023-04-23T13:07:48;19.20;80.00
57390;DHT22;43217;52.694;6.214;2023-04-23T13:10:14;19.20;79.90
57390;DHT22;43217;52.694;6.214;2023-04-23T13:12:40;19.10;81.90
57390;DHT22;43217;52.694;6.214;2023-04-23T13:15:07;19.00;80.70
57390;DHT22;43217;52.694;6.214;2023-04-23T13:17:33;18.80;77.50
57390;DHT22;43217;52.694;6.214;2023-04-23T13:19:59;18.60;77.90
57390;DHT22;43217;52.694;6.214;2023-04-23T13:22:25;18.60;78.20
57390;DHT22;43217;52.694;6.214;2023-04-23T13:24:54;18.50;80.10
57390;DHT22;43217;52.694;6.214;2023-04-23T13:27:22;18.50;81.80
57390;DHT22;43217;52.694;6.214;2023-04-23T13:29:48;18.30;81.30
57390;DHT22;43217;52.694;6.214;2023-04-23T13:32:14;18.40;83.20
57390;DHT22;43217;52.694;6.214;2023-04-23T13:34:41;18.40;82.70
57390;DHT22;43217;52.694;6.214;2023-04-23T13:37:06;18.40;82.10
57390;DHT22;43217;52.694;6.214;2023-04-23T13:39:34;18.30;82.10
57390;DHT22;43217;52.694;6.214;2023-04-23T13:42:00;18.40;83.20
57390;DHT22;43217;52.694;6.214;2023-04-23T13:44:26;18.60;81.80
57390;DHT22;43217;52.694;6.214;2023-04-23T13:46:52;18.60;80.90
57390;DHT22;43217;52.694;6.214;2023-04-23T13:49:17;18.60;80.30
57390;DHT22;43217;52.694;6.214;2023-04-23T13:51:43;18.60;83.20
57390;DHT22;43217;52.694;6.214;2023-04-23T13:54:08;18.60;81.40
57390;DHT22;43217;52.694;6.214;2023-04-23T13:56:34;18.60;82.40
57390;DHT22;43217;52.694;6.214;2023-04-23T13:59:01;18.70;81.00
57390;DHT22;43217;52.694;6.214;2023-04-23T14:01:28;18.70;78.70
57390;DHT22;43217;52.694;6.214;2023-04-23T14:03:54;18.60;80.70
57390;DHT22;43217;52.694;6.214;2023-04-23T14:06:21;18.50;82.10
57390;DHT22;43217;52.694;6.214;2023-04-23T14:08:46;18.40;82.00
57390;DHT22;43217;52.694;6.214;2023-04-23T14:11:12;18.40;84.50
57390;DHT22;43217;52.694;6.214;2023-04-23T14:13:38;18.40;81.90
57390;DHT22;43217;52.694;6.214;2023-04-23T14:16:03;18.40;83.60
57390;DHT22;43217;52.694;6.214;2023-04-23T14:18:29;18.40;83.10
57390;DHT22;43217;52.694;6.214;2023-04-23T14:20:55;18.40;83.70
57390;DHT22;43217;52.694;6.214;2023-04-23T14:26:03;18.30;85.30
57390;DHT22;43217;52.694;6.214;2023-04-23T14:28:34;18.30;85.80
57390;DHT22;43217;52.694;6.214;2023-04-23T14:31:03;18.20;84.20
57390;DHT22;43217;52.694;6.214;2023-04-23T14:33:29;18.10;85.00
57390;DHT22;43217;52.694;6.214;2023-04-23T14:35:55;18.10;85.00
57390;DHT22;43217;52.694;6.214;2023-04-23T14:38:20;18.10;85.40
57390;DHT22;43217;52.694;6.214;2023-04-23T14:40:46;18.10;86.30
57390;DHT22;43217;52.694;6.214;2023-04-23T14:43:12;18.10;86.50
57390;DHT22;43217;52.694;6.214;2023-04-23T14:45:37;17.90;86.60
57390;DHT22;43217;52.694;6.214;2023-04-23T14:48:03;17.80;87.70
57390;DHT22;43217;52.694;6.214;2023-04-23T14:50:28;17.80;87.60
57390;DHT22;43217;52.694;6.214;2023-04-23T14:52:54;17.80;88.80
57390;DHT22;43217;52.694;6.214;2023-04-23T14:55:21;17.80;88.20
57390;DHT22;43217;52.694;6.214;2023-04-23T14:57:47;17.80;87.70
57390;DHT22;43217;52.694;6.214;2023-04-23T15:00:13;17.90;87.50
57390;DHT22;43217;52.694;6.214;2023-04-23T15:02:40;17.80;87.70
57390;DHT22;43217;52.694;6.214;2023-04-23T15:05:07;17.90;86.30
57390;DHT22;43217;52.694;6.214;2023-04-23T15:07:34;17.90;86.80
57390;DHT22;43217;52.694;6.214;2023-04-23T15:10:00;17.90;87.50
57390;DHT22;43217;52.694;6.214;2023-04-23T15:12:54;18.00;85.60
57390;DHT22;43217;52.694;6.214;2023-04-23T15:15:35;18.10;86.00
57390;DHT22;43217;52.694;6.214;2023-04-23T15:18:02;18.00;86.50
57390;DHT22;43217;52.694;6.214;2023-04-23T15:20:27;18.00;87.70
57390;DHT22;43217;52.694;6.214;2023-04-23T15:22:53;18.00;88.80
57390;DHT22;43217;52.694;6.214;2023-04-23T15:25:19;17.90;89.80
57390;DHT22;43217;52.694;6.214;2023-04-23T15:27:44;17.90;90.00
57390;DHT22;43217;52.694;6.214;2023-04-23T15:30:11;17.80;91.60
57390;DHT22;43217;52.694;6.214;2023-04-23T15:32:37;17.70;90.40
57390;DHT22;43217;52.694;6.214;2023-04-23T15:35:02;17.60;90.60
57390;DHT22;43217;52.694;6.214;2023-04-23T15:37:28;17.60;91.40
57390;DHT22;43217;52.694;6.214;2023-04-23T15:39:56;17.60;91.80
57390;DHT22;43217;52.694;6.214;2023-04-23T15:42:23;17.60;92.20
57390;DHT22;43217;52.694;6.214;2023-04-23T15:44:50;17.60;92.00
57390;DHT22;43217;52.694;6.214;2023-04-23T15:47:19;17.60;91.10
57390;DHT22;43217;52.694;6.214;2023-04-23T15:49:46;17.50;91.30
57390;DHT22;43217;52.694;6.214;2023-04-23T15:52:11;17.40;90.50